sensor_id;sensor_type;location;lat;lon;timestamp;P1;durP1;ratioP1;P2;durP2;ratioP2
75634;SDS011;64227;48.724;9.104;2023-07-28T00:01:08;2.17;;;1.42;;
75634;SDS011;64227;48.724;9.104;2023-07-28T00:03:34;1.90;;;1.63;;
75634;SDS011;64227;48.724;9.104;2023-07-28T00:05:59;1.60;;;1.23;;
75634;SDS011;64227;48.724;9.104;2023-07-28T00:08:24;2.22;;;1.67;;
75634;SDS011;64227;48.724;9.104;2023-07-28T00:10:50;2.25;;;1.63;;
75634;SDS011;64227;48.724;9.104;2023-07-28T00:13:15;2.08;;;1.38;;
75634;SDS011;64227;48.724;9.104;2023-07-28T00:15:40;1.70;;;1.60;;
75634;SDS011;64227;48.724;9.104;2023-07-28T00:18:05;1.50;;;1.40;;
75634;SDS011;64227;48.724;9.104;2023-07-28T00:20:31;2.80;;;1.48;;
75634;SDS011;64227;48.724;9.104;2023-07-28T00:22:56;2.15;;;1.58;;
75634;SDS011;64227;48.724;9.104;2023-07-28T00:25:22;5.75;;;1.70;;
75634;SDS011;64227;48.724;9.104;2023-07-28T00:27:47;2.85;;;1.67;;
75634;SDS011;64227;48.724;9.104;2023-07-28T00:30:12;3.30;;;1.80;;
75634;SDS011;64227;48.724;9.104;2023-07-28T00:32:38;1.80;;;1.60;;
75634;SDS011;64227;48.724;9.104;2023-07-28T00:35:03;3.30;;;1.20;;
75634;SDS011;64227;48.724;9.104;2023-07-28T00:37:29;1.50;;;1.30;;
75634;SDS011;64227;48.724;9.104;2023-07-28T00:39:54;2.08;;;1.60;;
75634;SDS011;64227;48.724;9.104;2023-07-28T00:42:19;2.00;;;1.48;;
75634;SDS011;64227;48.724;9.104;2023-07-28T00:44:44;1.88;;;1.60;;
75634;SDS011;64227;48.724;9.104;2023-07-28T00:47:10;3.45;;;1.40;;
75634;SDS011;64227;48.724;9.104;2023-07-28T00:49:35;1.98;;;1.50;;
75634;SDS011;64227;48.724;9.104;2023-07-28T00:52:01;1.83;;;1.60;;
75634;SDS011;64227;48.724;9.104;2023-07-28T00:54:27;1.85;;;1.48;;
75634;SDS011;64227;48.724;9.104;2023-07-28T00:56:52;2.15;;;1.50;;
75634;SDS011;64227;48.724;9.104;2023-07-28T00:59:18;3.00;;;1.67;;
75634;SDS011;64227;48.724;9.104;2023-07-28T01:01:43;1.88;;;1.30;;
75634;SDS011;64227;48.724;9.104;2023-07-28T01:04:08;1.52;;;1.30;;
75634;SDS011;64227;48.724;9.104;2023-07-28T01:06:41;1.98;;;1.48;;
75634;SDS011;64227;48.724;9.104;2023-07-28T01:09:13;1.58;;;1.48;;
75634;SDS011;64227;48.724;9.104;2023-07-28T01:11:54;2.90;;;1.30;;
75634;SDS011;64227;48.724;9.104;2023-07-28T01:14:20;1.70;;;1.48;;
75634;SDS011;64227;48.724;9.104;2023-07-28T01:16:45;3.03;;;1.67;;
75634;SDS011;64227;48.724;9.104;2023-07-28T01:19:10;1.77;;;1.50;;
75634;SDS011;64227;48.724;9.104;2023-07-28T01:21:37;1.98;;;1.42;;
75634;SDS011;64227;48.724;9.104;2023-07-28T01:24:07;2.20;;;1.33;;
75634;SDS011;64227;48.724;9.104;2023-07-28T01:26:34;2.35;;;1.45;;
75634;SDS011;64227;48.724;9.104;2023-07-28T01:29:01;2.47;;;1.67;;
75634;SDS011;64227;48.724;9.104;2023-07-28T01:31:26;1.35;;;1.23;;
75634;SDS011;64227;48.724;9.104;2023-07-28T01:33:52;1.70;;;1.38;;
75634;SDS011;64227;48.724;9.104;2023-07-28T01:36:17;1.40;;;1.30;;
75634;SDS011;64227;48.724;9.104;2023-07-28T01:38:42;2.10;;;1.58;;
75634;SDS011;64227;48.724;9.104;2023-07-28T01:41:08;2.75;;;1.40;;
75634;SDS011;64227;48.724;9.104;2023-07-28T01:43:33;1.50;;;1.40;;
75634;SDS011;64227;48.724;9.104;2023-07-28T01:45:58;2.55;;;1.40;;
75634;SDS011;64227;48.724;9.104;2023-07-28T01:48:25;1.65;;;1.35;;
75634;SDS011;64227;48.724;9.104;2023-07-28T01:50:51;2.78;;;1.63;;
75634;SDS011;64227;48.724;9.104;2023-07-28T01:53:16;1.75;;;1.25;;
75634;SDS011;64227;48.724;9.104;2023-07-28T01:55:41;2.67;;;1.73;;
75634;SDS011;64227;48.724;9.104;2023-07-28T01:58:07;2.50;;;1.40;;
75634;SDS011;64227;48.724;9.104;2023-07-28T02:00:32;1.65;;;1.30;;
75634;SDS011;64227;48.724;9.104;2023-07-28T02:02:57;1.60;;;1.50;;
75634;SDS011;64227;48.724;9.104;2023-07-28T02:05:23;1.75;;;1.40;;
75634;SDS011;64227;48.724;9.104;2023-07-28T02:07:49;2.08;;;1.10;;
75634;SDS011;64227;48.724;9.104;2023-07-28T02:10:14;2.03;;;1.48;;
75634;SDS011;64227;48.724;9.104;2023-07-28T02:12:39;1.70;;;1.20;;
75634;SDS011;64227;48.724;9.104;2023-07-28T02:15:05;1.63;;;1.48;;
75634;SDS011;64227;48.724;9.104;2023-07-28T02:17:31;1.95;;;1.20;;
75634;SDS011;64227;48.724;9.104;2023-07-28T02:19:56;1.50;;;1.30;;
75634;SDS011;64227;48.724;9.104;2023-07-28T02:22:22;1.58;;;1.20;;
75634;SDS011;64227;48.724;9.104;2023-07-28T02:24:47;2.05;;;1.65;;
75634;SDS011;64227;48.724;9.104;2023-07-28T02:27:12;1.98;;;1.73;;
75634;SDS011;64227;48.724;9.104;2023-07-28T02:29:38;1.50;;;1.30;;
75634;SDS011;64227;48.724;9.104;2023-07-28T02:32:03;2.55;;;1.70;;
75634;SDS011;64227;48.724;9.104;2023-07-28T02:34:29;2.05;;;1.67;;
75634;SDS011;64227;48.724;9.104;2023-07-28T02:36:54;5.78;;;1.70;;
75634;SDS011;64227;48.724;9.104;2023-07-28T02:39:19;1.92;;;1.30;;
75634;SDS011;64227;48.724;9.104;2023-07-28T02:41:46;1.45;;;1.35;;
75634;SDS011;64227;48.724;9.104;2023-07-28T02:44:11;3.83;;;1.80;;
75634;SDS011;64227;48.724;9.104;2023-07-28T02:46:36;2.70;;;1.27;;
75634;SDS011;64227;48.724;9.104;2023-07-28T02:49:02;1.75;;;1.50;;
75634;SDS011;64227;48.724;9.104;2023-07-28T02:51:29;1.77;;;1.55;;
75634;SDS011;64227;48.724;9.104;2023-07-28T02:53:54;2.65;;;1.60;;
75634;SDS011;64227;48.724;9.104;2023-07-28T02:56:20;2.53;;;1.38;;
75634;SDS011;64227;48.724;9.104;2023-07-28T02:58:45;1.45;;;1.30;;
75634;SDS011;64227;48.724;9.104;2023-07-28T03:01:11;1.83;;;1.50;;
75634;SDS011;64227;48.724;9.104;2023-07-28T03:03:37;3.72;;;1.40;;
75634;SDS011;64227;48.724;9.104;2023-07-28T03:06:02;6.07;;;1.80;;
75634;SDS011;64227;48.724;9.104;2023-07-28T03:08:27;1.63;;;1.42;;
75634;SDS011;64227;48.724;9.104;2023-07-28T03:10:56;1.83;;;1.40;;
75634;SDS011;64227;48.724;9.104;2023-07-28T03:13:22;1.65;;;1.48;;
75634;SDS011;64227;48.724;9.104;2023-07-28T03:15:47;1.80;;;1.38;;
75634;SDS011;64227;48.724;9.104;2023-07-28T03:18:13;1.38;;;1.27;;
75634;SDS011;64227;48.724;9.104;2023-07-28T03:20:38;1.60;;;1.50;;
75634;SDS011;64227;48.724;9.104;2023-07-28T03:23:03;2.90;;;1.25;;
75634;SDS011;64227;48.724;9.104;2023-07-28T03:25:28;1.45;;;1.30;;
75634;SDS011;64227;48.724;9.104;2023-07-28T03:27:54;3.30;;;1.40;;
75634;SDS011;64227;48.724;9.104;2023-07-28T03:30:19;3.40;;;1.50;;
75634;SDS011;64227;48.724;9.104;2023-07-28T03:32:44;1.77;;;1.48;;
75634;SDS011;64227;48.724;9.104;2023-07-28T03:35:10;1.20;;;1.02;;
75634;SDS011;64227;48.724;9.104;2023-07-28T03:37:35;1.42;;;1.20;;
75634;SDS011;64227;48.724;9.104;2023-07-28T03:40:00;1.63;;;1.40;;
75634;SDS011;64227;48.724;9.104;2023-07-28T03:42:26;1.35;;;1.23;;
75634;SDS011;64227;48.724;9.104;2023-07-28T03:44:51;1.83;;;1.30;;
75634;SDS011;64227;48.724;9.104;2023-07-28T03:47:16;2.75;;;1.20;;
75634;SDS011;64227;48.724;9.104;2023-07-28T03:49:42;1.35;;;1.23;;
75634;SDS011;64227;48.724;9.104;2023-07-28T03:52:07;1.30;;;1.20;;
75634;SDS011;64227;48.724;9.104;2023-07-28T03:54:32;3.08;;;1.52;;
75634;SDS011;64227;48.724;9.104;2023-07-28T03:56:58;1.70;;;1.58;;
75634;SDS011;64227;48.724;9.104;2023-07-28T03:59:23;2.35;;;1.45;;
75634;SDS011;64227;48.724;9.104;2023-07-28T04:01:48;1.67;;;1.27;;
75634;SDS011;64227;48.724;9.104;2023-07-28T04:04:14;1.67;;;1.40;;
75634;SDS011;64227;48.724;9.104;2023-07-28T04:06:47;2.58;;;1.42;;
75634;SDS011;64227;48.724;9.104;2023-07-28T04:09:17;1.95;;;1.40;;
75634;SDS011;64227;48.724;9.104;2023-07-28T04:11:43;1.48;;;1.38;;
75634;SDS011;64227;48.724;9.104;2023-07-28T04:14:08;1.50;;;1.30;;
75634;SDS011;64227;48.724;9.104;2023-07-28T04:16:33;1.85;;;1.70;;
75634;SDS011;64227;48.724;9.104;2023-07-28T04:18:59;1.42;;;1.10;;
75634;SDS011;64227;48.724;9.104;2023-07-28T04:21:25;1.98;;;1.70;;
75634;SDS011;64227;48.724;9.104;2023-07-28T04:23:50;1.77;;;1.25;;
75634;SDS011;64227;48.724;9.104;2023-07-28T04:26:16;1.40;;;1.30;;
75634;SDS011;64227;48.724;9.104;2023-07-28T04:28:45;1.63;;;1.20;;
75634;SDS011;64227;48.724;9.104;2023-07-28T04:31:10;1.85;;;1.23;;
75634;SDS011;64227;48.724;9.104;2023-07-28T04:33:36;1.60;;;1.15;;
75634;SDS011;64227;48.724;9.104;2023-07-28T04:36:04;1.13;;;1.02;;
75634;SDS011;64227;48.724;9.104;2023-07-28T04:38:30;1.35;;;1.20;;
75634;SDS011;64227;48.724;9.104;2023-07-28T04:40:55;1.33;;;1.20;;
75634;SDS011;64227;48.724;9.104;2023-07-28T04:43:20;1.08;;;0.98;;
75634;SDS011;64227;48.724;9.104;2023-07-28T04:45:45;1.67;;;1.20;;
75634;SDS011;64227;48.724;9.104;2023-07-28T04:48:11;1.05;;;0.95;;
75634;SDS011;64227;48.724;9.104;2023-07-28T04:50:36;1.20;;;0.95;;
75634;SDS011;64227;48.724;9.104;2023-07-28T04:53:02;0.80;;;0.80;;
75634;SDS011;64227;48.724;9.104;2023-07-28T04:55:27;1.20;;;0.95;;
75634;SDS011;64227;48.724;9.104;2023-07-28T04:57:53;1.00;;;0.90;;
75634;SDS011;64227;48.724;9.104;2023-07-28T05:00:18;1.10;;;1.00;;
75634;SDS011;64227;48.724;9.104;2023-07-28T05:02:44;2.35;;;1.60;;
75634;SDS011;64227;48.724;9.104;2023-07-28T05:05:09;1.42;;;1.00;;
75634;SDS011;64227;48.724;9.104;2023-07-28T05:07:34;1.13;;;1.02;;
75634;SDS011;64227;48.724;9.104;2023-07-28T05:10:00;2.05;;;1.10;;
75634;SDS011;64227;48.724;9.104;2023-07-28T05:12:25;2.08;;;1.30;;
75634;SDS011;64227;48.724;9.104;2023-07-28T05:14:50;1.35;;;1.15;;
75634;SDS011;64227;48.724;9.104;2023-07-28T05:17:15;2.03;;;1.40;;
75634;SDS011;64227;48.724;9.104;2023-07-28T05:19:41;1.75;;;1.30;;
75634;SDS011;64227;48.724;9.104;2023-07-28T05:22:06;2.00;;;1.50;;
75634;SDS011;64227;48.724;9.104;2023-07-28T05:24:32;1.45;;;1.20;;
75634;SDS011;64227;48.724;9.104;2023-07-28T05:26:58;1.23;;;1.13;;
75634;SDS011;64227;48.724;9.104;2023-07-28T05:29:23;1.77;;;1.42;;
75634;SDS011;64227;48.724;9.104;2023-07-28T05:31:49;2.70;;;1.55;;
75634;SDS011;64227;48.724;9.104;2023-07-28T05:34:14;1.42;;;1.20;;
75634;SDS011;64227;48.724;9.104;2023-07-28T05:36:39;1.98;;;1.55;;
75634;SDS011;64227;48.724;9.104;2023-07-28T05:39:05;1.27;;;1.17;;
75634;SDS011;64227;48.724;9.104;2023-07-28T05:41:30;2.58;;;1.25;;
75634;SDS011;64227;48.724;9.104;2023-07-28T05:43:55;1.92;;;1.48;;
75634;SDS011;64227;48.724;9.104;2023-07-28T05:46:21;2.17;;;1.40;;
75634;SDS011;64227;48.724;9.104;2023-07-28T05:48:46;2.05;;;1.60;;
75634;SDS011;64227;48.724;9.104;2023-07-28T05:51:11;1.90;;;1.33;;
75634;SDS011;64227;48.724;9.104;2023-07-28T05:53:37;2.42;;;1.70;;
75634;SDS011;64227;48.724;9.104;2023-07-28T05:56:03;1.98;;;1.75;;
75634;SDS011;64227;48.724;9.104;2023-07-28T05:58:28;2.67;;;1.63;;
75634;SDS011;64227;48.724;9.104;2023-07-28T06:00:53;3.00;;;2.15;;
75634;SDS011;64227;48.724;9.104;2023-07-28T06:03:19;2.03;;;1.80;;
75634;SDS011;64227;48.724;9.104;2023-07-28T06:05:44;2.00;;;1.63;;
75634;SDS011;64227;48.724;9.104;2023-07-28T06:08:09;2.70;;;2.10;;
75634;SDS011;64227;48.724;9.104;2023-07-28T06:10:34;1.77;;;1.48;;
75634;SDS011;64227;48.724;9.104;2023-07-28T06:13:00;2.22;;;1.83;;
75634;SDS011;64227;48.724;9.104;2023-07-28T06:15:25;3.22;;;1.73;;
75634;SDS011;64227;48.724;9.104;2023-07-28T06:17:51;3.55;;;1.90;;
75634;SDS011;64227;48.724;9.104;2023-07-28T06:20:17;2.58;;;1.75;;
75634;SDS011;64227;48.724;9.104;2023-07-28T06:22:42;2.53;;;1.60;;
75634;SDS011;64227;48.724;9.104;2023-07-28T06:25:07;2.00;;;1.35;;
75634;SDS011;64227;48.724;9.104;2023-07-28T06:27:33;2.80;;;1.83;;
75634;SDS011;64227;48.724;9.104;2023-07-28T06:29:58;3.17;;;2.10;;
75634;SDS011;64227;48.724;9.104;2023-07-28T06:32:24;2.15;;;1.65;;
75634;SDS011;64227;48.724;9.104;2023-07-28T06:34:49;3.33;;;1.75;;
75634;SDS011;64227;48.724;9.104;2023-07-28T06:37:15;5.28;;;2.10;;
75634;SDS011;64227;48.724;9.104;2023-07-28T06:39:40;2.47;;;2.03;;
75634;SDS011;64227;48.724;9.104;2023-07-28T06:42:06;2.05;;;1.73;;
75634;SDS011;64227;48.724;9.104;2023-07-28T06:44:32;4.25;;;1.73;;
75634;SDS011;64227;48.724;9.104;2023-07-28T06:46:57;2.22;;;1.50;;
75634;SDS011;64227;48.724;9.104;2023-07-28T06:49:22;2.47;;;1.73;;
75634;SDS011;64227;48.724;9.104;2023-07-28T06:51:48;3.97;;;1.80;;
75634;SDS011;64227;48.724;9.104;2023-07-28T06:54:13;3.17;;;1.60;;
75634;SDS011;64227;48.724;9.104;2023-07-28T06:56:39;1.85;;;1.50;;
75634;SDS011;64227;48.724;9.104;2023-07-28T06:59:05;1.42;;;1.25;;
75634;SDS011;64227;48.724;9.104;2023-07-28T07:01:31;2.28;;;1.83;;
75634;SDS011;64227;48.724;9.104;2023-07-28T07:03:57;2.30;;;1.50;;
75634;SDS011;64227;48.724;9.104;2023-07-28T07:06:22;1.75;;;1.35;;
75634;SDS011;64227;48.724;9.104;2023-07-28T07:08:47;2.83;;;1.80;;
75634;SDS011;64227;48.724;9.104;2023-07-28T07:11:13;3.40;;;1.85;;
75634;SDS011;64227;48.724;9.104;2023-07-28T07:13:38;2.45;;;1.58;;
75634;SDS011;64227;48.724;9.104;2023-07-28T07:16:04;2.58;;;1.60;;
75634;SDS011;64227;48.724;9.104;2023-07-28T07:18:30;3.17;;;1.80;;
75634;SDS011;64227;48.724;9.104;2023-07-28T07:20:55;2.13;;;1.60;;
75634;SDS011;64227;48.724;9.104;2023-07-28T07:23:21;1.85;;;1.65;;
75634;SDS011;64227;48.724;9.104;2023-07-28T07:25:48;4.22;;;1.75;;
75634;SDS011;64227;48.724;9.104;2023-07-28T07:28:14;1.50;;;1.30;;
75634;SDS011;64227;48.724;9.104;2023-07-28T07:30:39;1.88;;;1.40;;
75634;SDS011;64227;48.724;9.104;2023-07-28T07:33:05;2.00;;;1.75;;
75634;SDS011;64227;48.724;9.104;2023-07-28T07:35:30;2.05;;;1.42;;
75634;SDS011;64227;48.724;9.104;2023-07-28T07:37:55;1.85;;;1.60;;
75634;SDS011;64227;48.724;9.104;2023-07-28T07:40:21;1.90;;;1.67;;
75634;SDS011;64227;48.724;9.104;2023-07-28T07:42:47;1.63;;;1.52;;
75634;SDS011;64227;48.724;9.104;2023-07-28T07:45:13;1.70;;;1.40;;
75634;SDS011;64227;48.724;9.104;2023-07-28T07:47:39;1.85;;;1.58;;
75634;SDS011;64227;48.724;9.104;2023-07-28T07:50:08;2.05;;;1.65;;
75634;SDS011;64227;48.724;9.104;2023-07-28T07:52:34;1.90;;;1.52;;
75634;SDS011;64227;48.724;9.104;2023-07-28T07:55:00;2.50;;;1.67;;
75634;SDS011;64227;48.724;9.104;2023-07-28T07:57:26;1.45;;;1.30;;
75634;SDS011;64227;48.724;9.104;2023-07-28T07:59:51;2.70;;;1.63;;
75634;SDS011;64227;48.724;9.104;2023-07-28T08:02:17;2.78;;;1.75;;
75634;SDS011;64227;48.724;9.104;2023-07-28T08:04:42;2.28;;;1.33;;
75634;SDS011;64227;48.724;9.104;2023-07-28T08:07:08;1.75;;;1.45;;
75634;SDS011;64227;48.724;9.104;2023-07-28T08:09:33;1.50;;;1.40;;
75634;SDS011;64227;48.724;9.104;2023-07-28T08:11:59;1.05;;;0.93;;
75634;SDS011;64227;48.724;9.104;2023-07-28T08:14:25;3.17;;;1.40;;
75634;SDS011;64227;48.724;9.104;2023-07-28T08:16:50;1.98;;;1.27;;
75634;SDS011;64227;48.724;9.104;2023-07-28T08:19:15;2.33;;;1.45;;
75634;SDS011;64227;48.724;9.104;2023-07-28T08:21:41;1.90;;;1.52;;
75634;SDS011;64227;48.724;9.104;2023-07-28T08:24:06;1.60;;;1.50;;
75634;SDS011;64227;48.724;9.104;2023-07-28T08:26:32;1.88;;;1.40;;
75634;SDS011;64227;48.724;9.104;2023-07-28T08:29:00;1.95;;;1.60;;
75634;SDS011;64227;48.724;9.104;2023-07-28T08:31:25;1.83;;;1.52;;
75634;SDS011;64227;48.724;9.104;2023-07-28T08:33:51;2.40;;;1.73;;
75634;SDS011;64227;48.724;9.104;2023-07-28T08:36:16;1.48;;;1.17;;
75634;SDS011;64227;48.724;9.104;2023-07-28T08:38:41;1.58;;;1.33;;
75634;SDS011;64227;48.724;9.104;2023-07-28T08:41:07;2.95;;;1.40;;
75634;SDS011;64227;48.724;9.104;2023-07-28T08:43:32;1.88;;;1.33;;
75634;SDS011;64227;48.724;9.104;2023-07-28T08:45:57;2.35;;;1.15;;
75634;SDS011;64227;48.724;9.104;2023-07-28T08:48:23;2.40;;;1.45;;
75634;SDS011;64227;48.724;9.104;2023-07-28T08:50:49;3.25;;;1.50;;
75634;SDS011;64227;48.724;9.104;2023-07-28T08:53:14;1.58;;;1.20;;
75634;SDS011;64227;48.724;9.104;2023-07-28T08:55:40;1.90;;;1.50;;
75634;SDS011;64227;48.724;9.104;2023-07-28T08:58:19;1.88;;;1.20;;
75634;SDS011;64227;48.724;9.104;2023-07-28T09:00:46;3.15;;;1.55;;
75634;SDS011;64227;48.724;9.104;2023-07-28T09:03:14;1.55;;;1.30;;
75634;SDS011;64227;48.724;9.104;2023-07-28T09:05:39;2.45;;;1.40;;
75634;SDS011;64227;48.724;9.104;2023-07-28T09:08:05;3.75;;;1.58;;
75634;SDS011;64227;48.724;9.104;2023-07-28T09:10:40;1.58;;;1.17;;
75634;SDS011;64227;48.724;9.104;2023-07-28T09:13:11;1.25;;;1.13;;
75634;SDS011;64227;48.724;9.104;2023-07-28T09:15:38;1.42;;;1.30;;
75634;SDS011;64227;48.724;9.104;2023-07-28T09:18:04;1.27;;;1.00;;
75634;SDS011;64227;48.724;9.104;2023-07-28T09:20:33;2.15;;;1.30;;
75634;SDS011;64227;48.724;9.104;2023-07-28T09:23:00;1.33;;;1.23;;
75634;SDS011;64227;48.724;9.104;2023-07-28T09:25:27;1.40;;;1.30;;
75634;SDS011;64227;48.724;9.104;2023-07-28T09:27:53;1.33;;;1.10;;
75634;SDS011;64227;48.724;9.104;2023-07-28T09:30:19;1.92;;;1.15;;
75634;SDS011;64227;48.724;9.104;2023-07-28T09:32:49;1.73;;;1.27;;
75634;SDS011;64227;48.724;9.104;2023-07-28T09:35:15;1.35;;;1.10;;
75634;SDS011;64227;48.724;9.104;2023-07-28T09:37:42;2.88;;;1.60;;
75634;SDS011;64227;48.724;9.104;2023-07-28T09:40:09;1.38;;;1.20;;
75634;SDS011;64227;48.724;9.104;2023-07-28T09:42:37;2.83;;;1.67;;
75634;SDS011;64227;48.724;9.104;2023-07-28T09:45:03;1.52;;;1.40;;
75634;SDS011;64227;48.724;9.104;2023-07-28T09:47:31;1.67;;;1.38;;
75634;SDS011;64227;48.724;9.104;2023-07-28T09:49:58;1.38;;;1.27;;
75634;SDS011;64227;48.724;9.104;2023-07-28T09:52:28;1.15;;;1.05;;
75634;SDS011;64227;48.724;9.104;2023-07-28T09:54:56;1.92;;;1.33;;
75634;SDS011;64227;48.724;9.104;2023-07-28T09:57:23;1.83;;;1.50;;
75634;SDS011;64227;48.724;9.104;2023-07-28T09:59:49;1.48;;;1.38;;
75634;SDS011;64227;48.724;9.104;2023-07-28T10:02:16;1.63;;;1.33;;
75634;SDS011;64227;48.724;9.104;2023-07-28T10:04:42;1.80;;;1.38;;
75634;SDS011;64227;48.724;9.104;2023-07-28T10:07:07;1.50;;;1.23;;
75634;SDS011;64227;48.724;9.104;2023-07-28T10:09:33;1.88;;;1.30;;
75634;SDS011;64227;48.724;9.104;2023-07-28T10:11:59;1.60;;;1.50;;
75634;SDS011;64227;48.724;9.104;2023-07-28T10:14:26;1.65;;;1.33;;
75634;SDS011;64227;48.724;9.104;2023-07-28T10:16:53;1.23;;;1.13;;
75634;SDS011;64227;48.724;9.104;2023-07-28T10:19:20;1.20;;;1.10;;
75634;SDS011;64227;48.724;9.104;2023-07-28T10:21:45;1.02;;;0.80;;
75634;SDS011;64227;48.724;9.104;2023-07-28T10:24:11;1.35;;;0.77;;
75634;SDS011;64227;48.724;9.104;2023-07-28T10:26:37;0.85;;;0.85;;
75634;SDS011;64227;48.724;9.104;2023-07-28T10:29:15;0.68;;;0.68;;
75634;SDS011;64227;48.724;9.104;2023-07-28T10:31:53;0.73;;;0.73;;
75634;SDS011;64227;48.724;9.104;2023-07-28T10:34:19;1.55;;;0.90;;
75634;SDS011;64227;48.724;9.104;2023-07-28T10:36:46;1.17;;;0.98;;
75634;SDS011;64227;48.724;9.104;2023-07-28T10:39:15;1.65;;;0.75;;
75634;SDS011;64227;48.724;9.104;2023-07-28T10:44:28;0.85;;;0.70;;
75634;SDS011;64227;48.724;9.104;2023-07-28T10:46:53;0.75;;;0.60;;
75634;SDS011;64227;48.724;9.104;2023-07-28T10:49:19;0.98;;;0.60;;
75634;SDS011;64227;48.724;9.104;2023-07-28T10:51:44;1.25;;;0.82;;
75634;SDS011;64227;48.724;9.104;2023-07-28T10:54:10;0.82;;;0.80;;
75634;SDS011;64227;48.724;9.104;2023-07-28T10:56:36;1.15;;;0.85;;
75634;SDS011;64227;48.724;9.104;2023-07-28T10:59:02;0.82;;;0.75;;
75634;SDS011;64227;48.724;9.104;2023-07-28T11:01:36;1.05;;;0.90;;
75634;SDS011;64227;48.724;9.104;2023-07-28T11:07:01;1.40;;;0.80;;
75634;SDS011;64227;48.724;9.104;2023-07-28T11:09:26;1.27;;;1.10;;
75634;SDS011;64227;48.724;9.104;2023-07-28T11:11:51;1.05;;;0.95;;
75634;SDS011;64227;48.724;9.104;2023-07-28T11:14:17;1.27;;;0.90;;
75634;SDS011;64227;48.724;9.104;2023-07-28T11:16:42;2.55;;;1.02;;
75634;SDS011;64227;48.724;9.104;2023-07-28T11:19:10;1.48;;;0.90;;
75634;SDS011;64227;48.724;9.104;2023-07-28T11:21:40;1.23;;;0.90;;
75634;SDS011;64227;48.724;9.104;2023-07-28T11:24:09;0.70;;;0.70;;
75634;SDS011;64227;48.724;9.104;2023-07-28T11:26:35;0.93;;;0.90;;
75634;SDS011;64227;48.724;9.104;2023-07-28T11:29:01;1.30;;;1.10;;
75634;SDS011;64227;48.724;9.104;2023-07-28T11:31:27;1.67;;;1.10;;
75634;SDS011;64227;48.724;9.104;2023-07-28T11:33:52;1.27;;;1.00;;
75634;SDS011;64227;48.724;9.104;2023-07-28T11:36:22;1.35;;;1.23;;
75634;SDS011;64227;48.724;9.104;2023-07-28T11:38:51;1.30;;;1.20;;
75634;SDS011;64227;48.724;9.104;2023-07-28T11:41:18;1.23;;;1.13;;
75634;SDS011;64227;48.724;9.104;2023-07-28T11:43:44;1.98;;;1.20;;
75634;SDS011;64227;48.724;9.104;2023-07-28T11:49:08;1.65;;;1.33;;
75634;SDS011;64227;48.724;9.104;2023-07-28T11:51:42;3.97;;;1.40;;
75634;SDS011;64227;48.724;9.104;2023-07-28T11:54:13;1.73;;;1.60;;
75634;SDS011;64227;48.724;9.104;2023-07-28T11:56:39;1.95;;;1.80;;
75634;SDS011;64227;48.724;9.104;2023-07-28T11:59:08;4.40;;;1.63;;
75634;SDS011;64227;48.724;9.104;2023-07-28T12:01:34;1.58;;;1.48;;
75634;SDS011;64227;48.724;9.104;2023-07-28T12:04:22;2.60;;;1.63;;
75634;SDS011;64227;48.724;9.104;2023-07-28T12:09:28;2.30;;;1.80;;
75634;SDS011;64227;48.724;9.104;2023-07-28T12:11:53;2.83;;;1.60;;
75634;SDS011;64227;48.724;9.104;2023-07-28T12:14:40;3.97;;;1.85;;
75634;SDS011;64227;48.724;9.104;2023-07-28T12:17:11;1.50;;;1.40;;
75634;SDS011;64227;48.724;9.104;2023-07-28T12:22:42;1.80;;;1.35;;
75634;SDS011;64227;48.724;9.104;2023-07-28T12:25:09;2.33;;;1.50;;
75634;SDS011;64227;48.724;9.104;2023-07-28T12:27:35;3.90;;;1.73;;
75634;SDS011;64227;48.724;9.104;2023-07-28T12:30:00;2.67;;;1.85;;
75634;SDS011;64227;48.724;9.104;2023-07-28T12:32:26;2.85;;;1.73;;
75634;SDS011;64227;48.724;9.104;2023-07-28T12:34:51;2.05;;;1.42;;
75634;SDS011;64227;48.724;9.104;2023-07-28T12:37:17;2.78;;;1.90;;
75634;SDS011;64227;48.724;9.104;2023-07-28T12:39:43;2.00;;;1.50;;
75634;SDS011;64227;48.724;9.104;2023-07-28T12:42:09;1.77;;;1.67;;
75634;SDS011;64227;48.724;9.104;2023-07-28T12:44:35;3.00;;;1.60;;
75634;SDS011;64227;48.724;9.104;2023-07-28T12:47:01;1.88;;;1.70;;
75634;SDS011;64227;48.724;9.104;2023-07-28T12:49:26;1.80;;;1.60;;
75634;SDS011;64227;48.724;9.104;2023-07-28T12:51:54;1.55;;;1.45;;
75634;SDS011;64227;48.724;9.104;2023-07-28T12:54:19;2.55;;;1.40;;
75634;SDS011;64227;48.724;9.104;2023-07-28T12:56:46;2.53;;;1.67;;
75634;SDS011;64227;48.724;9.104;2023-07-28T12:59:12;3.10;;;1.70;;
75634;SDS011;64227;48.724;9.104;2023-07-28T13:01:37;1.75;;;1.55;;
75634;SDS011;64227;48.724;9.104;2023-07-28T13:04:03;2.17;;;1.73;;
75634;SDS011;64227;48.724;9.104;2023-07-28T13:06:28;3.72;;;2.00;;
75634;SDS011;64227;48.724;9.104;2023-07-28T13:08:53;3.20;;;1.73;;
75634;SDS011;64227;48.724;9.104;2023-07-28T13:11:19;2.17;;;1.70;;
75634;SDS011;64227;48.724;9.104;2023-07-28T13:13:44;2.78;;;1.88;;
75634;SDS011;64227;48.724;9.104;2023-07-28T13:16:09;2.25;;;1.83;;
75634;SDS011;64227;48.724;9.104;2023-07-28T13:18:35;2.13;;;1.70;;
75634;SDS011;64227;48.724;9.104;2023-07-28T13:21:00;3.15;;;1.90;;
75634;SDS011;64227;48.724;9.104;2023-07-28T13:23:25;2.70;;;2.00;;
75634;SDS011;64227;48.724;9.104;2023-07-28T13:25:51;5.32;;;2.50;;
75634;SDS011;64227;48.724;9.104;2023-07-28T13:28:17;2.40;;;1.90;;
75634;SDS011;64227;48.724;9.104;2023-07-28T13:30:43;2.22;;;1.88;;
75634;SDS011;64227;48.724;9.104;2023-07-28T13:33:08;1.85;;;1.73;;
75634;SDS011;64227;48.724;9.104;2023-07-28T13:35:33;3.33;;;1.80;;
75634;SDS011;64227;48.724;9.104;2023-07-28T13:37:59;3.35;;;1.80;;
75634;SDS011;64227;48.724;9.104;2023-07-28T13:40:24;2.88;;;2.10;;
75634;SDS011;64227;48.724;9.104;2023-07-28T13:42:49;1.75;;;1.50;;
75634;SDS011;64227;48.724;9.104;2023-07-28T13:45:15;2.47;;;1.70;;
75634;SDS011;64227;48.724;9.104;2023-07-28T13:47:40;2.10;;;1.60;;
75634;SDS011;64227;48.724;9.104;2023-07-28T13:50:05;2.80;;;1.83;;
75634;SDS011;64227;48.724;9.104;2023-07-28T13:52:32;2.20;;;1.63;;
75634;SDS011;64227;48.724;9.104;2023-07-28T13:54:57;4.68;;;2.00;;
75634;SDS011;64227;48.724;9.104;2023-07-28T13:57:23;2.13;;;1.58;;
75634;SDS011;64227;48.724;9.104;2023-07-28T13:59:48;1.83;;;1.45;;
75634;SDS011;64227;48.724;9.104;2023-07-28T14:02:16;2.00;;;1.67;;
75634;SDS011;64227;48.724;9.104;2023-07-28T14:04:42;1.70;;;1.60;;
75634;SDS011;64227;48.724;9.104;2023-07-28T14:07:07;2.90;;;1.48;;
75634;SDS011;64227;48.724;9.104;2023-07-28T14:09:33;2.17;;;1.60;;
75634;SDS011;64227;48.724;9.104;2023-07-28T14:11:58;3.97;;;1.80;;
75634;SDS011;64227;48.724;9.104;2023-07-28T14:14:24;3.13;;;2.22;;
75634;SDS011;64227;48.724;9.104;2023-07-28T14:16:49;2.75;;;2.03;;
75634;SDS011;64227;48.724;9.104;2023-07-28T14:19:14;2.50;;;2.10;;
75634;SDS011;64227;48.724;9.104;2023-07-28T14:21:40;2.25;;;1.92;;
75634;SDS011;64227;48.724;9.104;2023-07-28T14:24:05;3.05;;;2.13;;
75634;SDS011;64227;48.724;9.104;2023-07-28T14:26:30;2.90;;;1.95;;
75634;SDS011;64227;48.724;9.104;2023-07-28T14:28:56;2.83;;;1.90;;
75634;SDS011;64227;48.724;9.104;2023-07-28T14:31:22;2.15;;;1.55;;
75634;SDS011;64227;48.724;9.104;2023-07-28T14:33:47;2.58;;;1.88;;
75634;SDS011;64227;48.724;9.104;2023-07-28T14:36:12;3.95;;;2.22;;
75634;SDS011;64227;48.724;9.104;2023-07-28T14:38:38;3.90;;;1.90;;
75634;SDS011;64227;48.724;9.104;2023-07-28T14:41:03;3.25;;;1.75;;
75634;SDS011;64227;48.724;9.104;2023-07-28T14:43:28;2.67;;;1.88;;
75634;SDS011;64227;48.724;9.104;2023-07-28T14:45:54;3.17;;;1.58;;
75634;SDS011;64227;48.724;9.104;2023-07-28T14:48:20;2.97;;;2.03;;
75634;SDS011;64227;48.724;9.104;2023-07-28T14:50:45;1.95;;;1.75;;
75634;SDS011;64227;48.724;9.104;2023-07-28T14:55:54;2.85;;;1.85;;
75634;SDS011;64227;48.724;9.104;2023-07-28T14:58:20;3.85;;;2.10;;